Time;durP1;ratioP1;P1;durP2;ratioP2;P2;SDS_P1;SDS_P2;PMS_P1;PMS_P2;Temp;Humidity;BMP_temperature;BMP_pressure;BME280_temperature;BME280_humidity;BME280_pressure;Samples;Min_cycle;Max_cycle;Signal;HPM_P1;HPM_P2
2024/02/23 00:01:25;;;;;;;9.43;8.52;;;;;;;;;;10402410;27;20480;-62
2024/02/23 00:06:27;;;;;;;8.68;7.53;;;;;;;;;;10419554;27;20117;-62
2024/02/23 00:11:27;;;;;;;7.93;7.10;;;;;;;;;;10420500;27;20303;-62
2024/02/23 00:16:26;;;;;;;8.57;7.72;;;;;;;;;;10422523;27;20075;-62
2024/02/23 00:21:26;;;;;;;7.43;6.82;;;;;;;;;;10422895;27;20148;-61
2024/02/23 00:26:24;;;;;;;7.93;7.22;;;;;;;;;;10422188;27;20082;-63
2024/02/23 00:31:24;;;;;;;9.00;8.18;;;;;;;;;;10421320;27;20113;-62
2024/02/23 00:36:23;;;;;;;8.55;7.75;;;;;;;;;;10416147;27;20362;-64
2024/02/23 00:41:21;;;;;;;8.57;7.65;;;;;;;;;;10420904;27;20071;-62
2024/02/23 00:46:20;;;;;;;7.97;7.18;;;;;;;;;;10423173;27;20085;-61
2024/02/23 00:51:19;;;;;;;8.43;7.63;;;;;;;;;;10416996;27;20100;-61
2024/02/23 00:56:17;;;;;;;7.55;6.85;;;;;;;;;;10414452;27;20073;-62
2024/02/23 01:01:16;;;;;;;7.15;6.47;;;;;;;;;;10415720;27;20079;-62
2024/02/23 01:06:14;;;;;;;8.32;7.53;;;;;;;;;;10417318;27;20075;-63
2024/02/23 01:11:14;;;;;;;8.88;7.97;;;;;;;;;;10418859;27;20067;-63
2024/02/23 01:16:12;;;;;;;9.30;8.35;;;;;;;;;;10423268;27;20071;-62
2024/02/23 01:21:10;;;;;;;9.30;8.40;;;;;;;;;;10418643;27;20077;-62
2024/02/23 01:26:09;;;;;;;9.32;8.05;;;;;;;;;;10420537;27;20074;-61
2024/02/23 01:31:11;;;;;;;12.18;11.05;;;;;;;;;;10416859;27;20074;-61
2024/02/23 01:36:09;;;;;;;8.40;7.60;;;;;;;;;;10422188;27;20112;-63
2024/02/23 01:41:08;;;;;;;8.55;7.68;;;;;;;;;;10413642;27;20078;-62
2024/02/23 01:46:06;;;;;;;8.40;7.55;;;;;;;;;;10419629;27;20078;-61
2024/02/23 01:51:06;;;;;;;8.45;7.63;;;;;;;;;;10416253;27;20110;-61
2024/02/23 01:56:05;;;;;;;8.05;7.25;;;;;;;;;;10413138;27;20079;-63
2024/02/23 02:01:03;;;;;;;8.90;8.00;;;;;;;;;;10398658;27;20079;-62
2024/02/23 02:06:02;;;;;;;8.85;7.40;;;;;;;;;;10416141;27;20535;-63
2024/02/23 02:11:01;;;;;;;8.55;7.68;;;;;;;;;;10413710;27;20075;-62
2024/02/23 02:16:03;;;;;;;7.47;6.78;;;;;;;;;;10411774;27;20499;-62
2024/02/23 02:21:03;;;;;;;8.02;7.18;;;;;;;;;;10413787;27;20079;-62
2024/02/23 02:26:04;;;;;;;8.68;7.88;;;;;;;;;;10413100;27;20074;-63
2024/02/23 02:31:02;;;;;;;8.90;8.00;;;;;;;;;;10411985;27;20128;-63
2024/02/23 02:36:01;;;;;;;8.88;7.32;;;;;;;;;;10408814;27;20465;-63
2024/02/23 02:41:00;;;;;;;8.43;7.63;;;;;;;;;;10411302;27;20536;-63
2024/02/23 02:45:59;;;;;;;7.93;7.13;;;;;;;;;;10408623;27;20079;-62
2024/02/23 02:50:58;;;;;;;8.50;7.70;;;;;;;;;;10411629;27;20066;-62
2024/02/23 02:55:56;;;;;;;10.60;8.02;;;;;;;;;;10412410;27;20067;-62
2024/02/23 03:00:54;;;;;;;9.90;7.78;;;;;;;;;;10410700;27;20067;-62
2024/02/23 03:05:54;;;;;;;7.70;7.00;;;;;;;;;;10412138;28;20074;-63
2024/02/23 03:10:52;;;;;;;9.57;8.18;;;;;;;;;;10414969;28;20070;-63
2024/02/23 03:15:50;;;;;;;9.88;8.90;;;;;;;;;;10413896;28;20070;-63
2024/02/23 03:20:48;;;;;;;9.13;8.23;;;;;;;;;;10422115;27;20095;-62
2024/02/23 03:25:48;;;;;;;8.25;7.45;;;;;;;;;;10423084;27;20075;-63
2024/02/23 03:30:46;;;;;;;8.80;7.90;;;;;;;;;;10414639;27;20082;-63
2024/02/23 03:35:44;;;;;;;9.25;8.45;;;;;;;;;;10419432;27;20074;-63
2024/02/23 03:40:43;;;;;;;10.10;9.05;;;;;;;;;;10417202;27;20066;-62
2024/02/23 03:45:42;;;;;;;10.15;8.77;;;;;;;;;;10415646;27;20492;-62
2024/02/23 03:50:41;;;;;;;9.10;8.13;;;;;;;;;;10415642;27;20359;-62
2024/02/23 03:55:39;;;;;;;11.75;7.90;;;;;;;;;;10419586;27;20071;-62
2024/02/23 04:00:37;;;;;;;8.18;7.20;;;;;;;;;;10421743;27;20461;-63
2024/02/23 04:05:37;;;;;;;8.65;7.65;;;;;;;;;;10415753;27;20101;-62
2024/02/23 04:10:36;;;;;;;7.82;7.03;;;;;;;;;;10417637;27;20075;-61
2024/02/23 04:15:34;;;;;;;8.30;7.47;;;;;;;;;;10420304;27;20075;-62
2024/02/23 04:20:33;;;;;;;8.38;7.53;;;;;;;;;;10417614;27;20087;-61
2024/02/23 04:25:32;;;;;;;8.65;7.70;;;;;;;;;;10417725;27;20106;-61
2024/02/23 04:30:31;;;;;;;10.55;9.45;;;;;;;;;;10420653;27;20481;-62
2024/02/23 04:35:29;;;;;;;11.65;10.23;;;;;;;;;;10423229;27;20071;-61
2024/02/23 04:40:28;;;;;;;18.15;9.50;;;;;;;;;;10403264;27;20090;-63
2024/02/23 04:45:27;;;;;;;8.45;7.65;;;;;;;;;;10420068;27;20067;-63
2024/02/23 04:50:25;;;;;;;11.35;8.85;;;;;;;;;;10419421;27;20078;-63
2024/02/23 04:55:24;;;;;;;10.80;8.38;;;;;;;;;;10415332;27;20078;-62
2024/02/23 05:00:22;;;;;;;8.80;7.97;;;;;;;;;;10416664;27;20500;-62
2024/02/23 05:05:22;;;;;;;8.07;7.30;;;;;;;;;;10416095;27;21271;-62
2024/02/23 05:10:22;;;;;;;9.05;8.15;;;;;;;;;;10414013;27;20060;-62
2024/02/23 05:15:21;;;;;;;8.52;7.72;;;;;;;;;;10413261;27;20069;-63
2024/02/23 05:20:19;;;;;;;8.85;7.60;;;;;;;;;;10411425;27;20079;-62
2024/02/23 05:25:18;;;;;;;10.05;7.78;;;;;;;;;;10417157;27;20074;-63
2024/02/23 05:30:17;;;;;;;9.55;8.57;;;;;;;;;;10415407;27;20500;-63
2024/02/23 05:35:15;;;;;;;8.50;7.75;;;;;;;;;;10415012;27;20147;-63
2024/02/23 05:40:13;;;;;;;8.68;7.88;;;;;;;;;;10411161;27;20086;-63
2024/02/23 05:45:13;;;;;;;7.65;6.95;;;;;;;;;;10410244;27;20059;-62
2024/02/23 05:50:11;;;;;;;7.70;6.93;;;;;;;;;;10409417;27;20090;-62
2024/02/23 05:55:09;;;;;;;18.48;10.50;;;;;;;;;;10408042;27;20070;-62
2024/02/23 06:00:08;;;;;;;9.07;8.18;;;;;;;;;;10407158;27;20079;-63
2024/02/23 06:05:10;;;;;;;8.48;7.63;;;;;;;;;;10403265;27;20509;-62
2024/02/23 06:10:09;;;;;;;8.40;7.60;;;;;;;;;;10414736;27;20062;-62
2024/02/23 06:15:07;;;;;;;7.82;7.13;;;;;;;;;;10412098;27;20063;-62
2024/02/23 06:20:07;;;;;;;8.27;7.32;;;;;;;;;;10414247;27;20191;-62
2024/02/23 06:25:07;;;;;;;7.57;6.88;;;;;;;;;;10413482;27;20055;-62
2024/02/23 06:30:06;;;;;;;8.18;7.40;;;;;;;;;;10413238;27;20342;-63
2024/02/23 06:35:06;;;;;;;7.97;7.22;;;;;;;;;;10413566;27;20067;-63
2024/02/23 06:40:07;;;;;;;12.55;10.57;;;;;;;;;;10410385;27;20082;-63
2024/02/23 06:45:07;;;;;;;15.02;13.40;;;;;;;;;;10395652;27;20071;-62
2024/02/23 06:50:06;;;;;;;11.43;10.30;;;;;;;;;;10414995;27;20071;-62
2024/02/23 06:55:05;;;;;;;8.63;7.82;;;;;;;;;;10412700;27;20512;-62
2024/02/23 07:00:04;;;;;;;7.65;6.90;;;;;;;;;;10413236;27;20896;-62
2024/02/23 07:05:04;;;;;;;8.30;7.43;;;;;;;;;;10411739;27;20520;-63
2024/02/23 07:10:02;;;;;;;10.48;7.90;;;;;;;;;;10408698;28;20086;-62
2024/02/23 07:15:00;;;;;;;8.07;7.22;;;;;;;;;;10416678;28;20085;-63
2024/02/23 07:20:05;;;;;;;10.93;9.73;;;;;;;;;;10410035;28;20083;-62
2024/02/23 07:25:05;;;;;;;8.20;7.35;;;;;;;;;;10411516;28;20089;-63
2024/02/23 07:30:04;;;;;;;8.63;7.35;;;;;;;;;;10413243;28;20094;-63
2024/02/23 07:35:03;;;;;;;8.40;7.18;;;;;;;;;;10405610;28;20067;-62
2024/02/23 07:40:03;;;;;;;8.50;7.25;;;;;;;;;;10415291;28;20105;-62
2024/02/23 07:45:04;;;;;;;8.18;6.95;;;;;;;;;;10414782;28;20071;-62
2024/02/23 07:50:02;;;;;;;7.68;6.85;;;;;;;;;;10415023;28;20070;-62
2024/02/23 07:55:02;;;;;;;10.68;7.65;;;;;;;;;;10416346;27;20074;-62
2024/02/23 08:00:01;;;;;;;10.18;8.23;;;;;;;;;;10416210;28;20435;-62
2024/02/23 08:05:10;;;;;;;8.18;7.43;;;;;;;;;;10418074;27;20058;-62
2024/02/23 08:10:11;;;;;;;9.18;8.25;;;;;;;;;;10421372;27;20453;-62
2024/02/23 08:15:09;;;;;;;8.20;7.05;;;;;;;;;;10421009;27;20086;-62
2024/02/23 08:20:08;;;;;;;6.93;6.15;;;;;;;;;;10422841;27;20083;-62
2024/02/23 08:25:08;;;;;;;7.25;5.78;;;;;;;;;;10423378;27;20506;-62
2024/02/23 08:30:11;;;;;;;9.35;7.18;;;;;;;;;;10421044;27;20082;-62
2024/02/23 08:35:10;;;;;;;9.30;6.90;;;;;;;;;;10422292;27;20516;-62
2024/02/23 08:40:10;;;;;;;6.28;5.60;;;;;;;;;;10422560;27;20082;-62
2024/02/23 08:45:09;;;;;;;7.25;6.55;;;;;;;;;;10421111;27;20105;-63
2024/02/23 08:50:08;;;;;;;7.80;6.40;;;;;;;;;;10421330;27;20063;-62
2024/02/23 08:55:06;;;;;;;7.75;6.40;;;;;;;;;;10421441;27;20489;-62
2024/02/23 09:00:07;;;;;;;10.95;7.53;;;;;;;;;;10422301;27;20085;-63
2024/02/23 09:05:06;;;;;;;17.30;6.85;;;;;;;;;;10423114;27;20063;-63
2024/02/23 09:10:05;;;;;;;14.35;7.18;;;;;;;;;;10423904;27;20063;-62
2024/02/23 09:15:03;;;;;;;8.45;7.38;;;;;;;;;;10420067;27;20075;-61
2024/02/23 09:20:03;;;;;;;9.15;7.45;;;;;;;;;;10418214;27;20079;-62
2024/02/23 09:25:01;;;;;;;12.02;7.78;;;;;;;;;;10423013;27;20080;-62
2024/02/23 09:29:59;;;;;;;7.55;6.57;;;;;;;;;;10419784;27;20078;-62
2024/02/23 09:34:58;;;;;;;9.52;5.85;;;;;;;;;;10421184;27;20063;-62
2024/02/23 09:39:58;;;;;;;7.10;5.82;;;;;;;;;;10418626;27;20070;-62
2024/02/23 09:44:58;;;;;;;6.80;5.90;;;;;;;;;;10420493;27;20071;-62
2024/02/23 09:49:57;;;;;;;7.85;6.55;;;;;;;;;;10420586;27;20078;-62
2024/02/23 09:54:55;;;;;;;11.05;8.75;;;;;;;;;;10419059;27;20075;-62
2024/02/23 09:59:55;;;;;;;7.47;6.28;;;;;;;;;;10418030;27;20062;-63
2024/02/23 10:04:55;;;;;;;10.25;7.88;;;;;;;;;;10419937;27;20073;-63
2024/02/23 10:09:55;;;;;;;8.10;6.30;;;;;;;;;;10419064;27;20066;-62
2024/02/23 10:14:55;;;;;;;9.15;6.63;;;;;;;;;;10419268;27;20531;-62
2024/02/23 10:19:53;;;;;;;9.65;7.47;;;;;;;;;;10416506;27;20083;-62
2024/02/23 10:24:51;;;;;;;8.10;7.30;;;;;;;;;;10418831;27;20078;-62
2024/02/23 10:29:50;;;;;;;6.93;6.28;;;;;;;;;;10415850;27;20071;-63
2024/02/23 10:34:50;;;;;;;6.95;5.82;;;;;;;;;;10417225;27;20075;-62
2024/02/23 10:39:51;;;;;;;5.95;5.32;;;;;;;;;;10419059;27;20476;-62
2024/02/23 10:44:50;;;;;;;6.82;5.20;;;;;;;;;;10417295;27;20070;-63
2024/02/23 10:49:50;;;;;;;7.72;5.32;;;;;;;;;;10417786;27;20069;-62
2024/02/23 10:54:48;;;;;;;6.55;5.38;;;;;;;;;;10419918;27;20125;-62
2024/02/23 10:59:47;;;;;;;8.25;5.22;;;;;;;;;;10416099;27;20063;-63
2024/02/23 11:04:46;;;;;;;5.70;5.10;;;;;;;;;;10417183;27;20098;-62
2024/02/23 11:09:49;;;;;;;12.40;5.13;;;;;;;;;;10416366;28;20070;-63
2024/02/23 11:14:49;;;;;;;5.85;5.25;;;;;;;;;;10417559;28;20067;-63
2024/02/23 11:19:50;;;;;;;5.25;4.75;;;;;;;;;;10416683;28;20078;-62
2024/02/23 11:24:50;;;;;;;7.00;4.57;;;;;;;;;;10417180;28;20497;-61
2024/02/23 11:30:00;;;;;;;10.90;5.43;;;;;;;;;;10416826;28;20071;-62
2024/02/23 11:34:58;;;;;;;5.93;4.88;;;;;;;;;;10417895;27;20071;-62
2024/02/23 11:39:58;;;;;;;5.13;4.57;;;;;;;;;;10418867;27;20759;-62
2024/02/23 11:44:58;;;;;;;6.50;4.70;;;;;;;;;;10423838;27;20388;-62
2024/02/23 11:49:56;;;;;;;5.72;5.10;;;;;;;;;;10424676;27;20036;-62
2024/02/23 11:54:56;;;;;;;5.18;4.30;;;;;;;;;;10423650;27;20442;-62
2024/02/23 11:59:55;;;;;;;6.88;3.95;;;;;;;;;;10422724;27;20071;-62
2024/02/23 12:04:54;;;;;;;6.15;4.95;;;;;;;;;;10423701;27;20078;-62
2024/02/23 12:09:52;;;;;;;5.15;4.65;;;;;;;;;;10421168;27;20070;-62
2024/02/23 12:14:51;;;;;;;4.13;3.72;;;;;;;;;;10422676;27;20060;-62
2024/02/23 12:19:50;;;;;;;5.20;4.15;;;;;;;;;;10423390;27;20097;-61
2024/02/23 12:24:52;;;;;;;5.05;4.13;;;;;;;;;;10422645;27;20082;-61
2024/02/23 12:29:54;;;;;;;4.80;3.67;;;;;;;;;;10410668;27;20043;-61
2024/02/23 12:34:54;;;;;;;4.85;4.05;;;;;;;;;;10422008;27;20086;-62
2024/02/23 12:39:52;;;;;;;4.25;3.85;;;;;;;;;;10424873;27;20073;-62
2024/02/23 12:44:50;;;;;;;5.07;3.45;;;;;;;;;;10422222;27;20079;-62
2024/02/23 12:49:49;;;;;;;5.00;4.50;;;;;;;;;;10423409;27;20075;-61
2024/02/23 12:54:48;;;;;;;9.93;8.75;;;;;;;;;;10423212;27;20451;-61
2024/02/23 12:59:49;;;;;;;5.50;4.18;;;;;;;;;;10419348;27;20059;-62
2024/02/23 13:04:49;;;;;;;6.68;5.35;;;;;;;;;;10420065;27;20091;-62
2024/02/23 13:09:49;;;;;;;5.63;3.83;;;;;;;;;;10419004;27;20067;-63
2024/02/23 13:14:47;;;;;;;4.53;3.88;;;;;;;;;;10419113;27;20059;-62
2024/02/23 13:19:46;;;;;;;4.45;3.53;;;;;;;;;;10416687;27;20071;-63
2024/02/23 13:25:04;;;;;;;7.82;7.03;;;;;;;;;;10417828;27;20176;-62
2024/02/23 13:30:03;;;;;;;4.20;3.50;;;;;;;;;;10401686;27;20074;-62
2024/02/23 13:35:04;;;;;;;4.32;3.92;;;;;;;;;;10416431;27;20062;-63
2024/02/23 13:40:05;;;;;;;5.03;3.83;;;;;;;;;;10419187;27;20081;-63
2024/02/23 13:45:04;;;;;;;4.00;3.60;;;;;;;;;;10416113;27;20078;-61
2024/02/23 13:50:02;;;;;;;5.68;4.63;;;;;;;;;;10417617;27;20067;-62
2024/02/23 13:55:01;;;;;;;6.50;3.88;;;;;;;;;;10417921;27;20071;-61
2024/02/23 14:00:00;;;;;;;5.90;4.30;;;;;;;;;;10417644;27;20062;-62
2024/02/23 14:05:08;;;;;;;5.65;3.75;;;;;;;;;;10417883;27;20094;-61
2024/02/23 14:10:07;;;;;;;4.05;3.65;;;;;;;;;;10411941;27;20075;-62
2024/02/23 14:15:07;;;;;;;4.15;3.75;;;;;;;;;;10414881;27;20103;-63
2024/02/23 14:20:06;;;;;;;4.10;3.47;;;;;;;;;;10416123;27;20079;-63
2024/02/23 14:25:05;;;;;;;6.30;4.25;;;;;;;;;;10416825;27;20087;-63
2024/02/23 14:30:04;;;;;;;10.02;4.07;;;;;;;;;;10419747;27;20067;-64
2024/02/23 14:35:04;;;;;;;5.65;3.97;;;;;;;;;;10415389;27;20082;-63
2024/02/23 14:40:03;;;;;;;4.15;3.75;;;;;;;;;;10417984;27;20082;-64
2024/02/23 14:45:01;;;;;;;8.57;4.10;;;;;;;;;;10414101;27;20488;-61
2024/02/23 14:49:59;;;;;;;5.57;4.75;;;;;;;;;;10420487;27;20059;-63
2024/02/23 14:54:59;;;;;;;7.97;7.18;;;;;;;;;;10417402;27;20070;-63
2024/02/23 14:59:57;;;;;;;7.30;5.00;;;;;;;;;;10417839;27;20075;-63
2024/02/23 15:04:55;;;;;;;12.55;10.45;;;;;;;;;;10418854;27;20082;-62
2024/02/23 15:09:54;;;;;;;6.47;4.55;;;;;;;;;;10415675;27;20063;-63
2024/02/23 15:14:53;;;;;;;14.52;13.23;;;;;;;;;;10417511;27;20083;-63
2024/02/23 15:19:52;;;;;;;30.02;27.27;;;;;;;;;;10422240;27;20075;-63
2024/02/23 15:24:50;;;;;;;13.70;12.07;;;;;;;;;;10407440;27;20074;-62
2024/02/23 15:29:48;;;;;;;13.43;9.98;;;;;;;;;;10428268;27;20070;-62
2024/02/23 15:34:48;;;;;;;14.80;10.65;;;;;;;;;;10431960;27;20063;-63
2024/02/23 15:39:47;;;;;;;25.23;13.00;;;;;;;;;;10426163;27;20067;-63
2024/02/23 15:44:45;;;;;;;17.02;9.30;;;;;;;;;;10427885;27;20082;-63
2024/02/23 15:49:44;;;;;;;17.52;12.85;;;;;;;;;;10429240;27;20063;-64
2024/02/23 15:55:04;;;;;;;12.15;9.68;;;;;;;;;;10422986;27;20503;-64
2024/02/23 16:00:02;;;;;;;32.22;21.13;;;;;;;;;;10422414;27;20115;-62
2024/02/23 16:05:06;;;;;;;19.23;13.50;;;;;;;;;;10421180;27;20074;-63
2024/02/23 16:10:06;;;;;;;13.40;8.80;;;;;;;;;;10419157;27;20077;-63
2024/02/23 16:15:06;;;;;;;27.05;19.15;;;;;;;;;;10421582;27;20067;-63
2024/02/23 16:20:05;;;;;;;22.23;14.23;;;;;;;;;;10418491;27;20508;-64
2024/02/23 16:25:05;;;;;;;18.98;13.98;;;;;;;;;;10417981;27;20074;-64
2024/02/23 16:30:05;;;;;;;28.65;20.80;;;;;;;;;;10420847;27;20464;-63
2024/02/23 16:35:04;;;;;;;21.65;17.65;;;;;;;;;;10428800;27;20070;-62
2024/02/23 16:40:02;;;;;;;24.90;18.63;;;;;;;;;;10420484;27;20062;-63
2024/02/23 16:45:01;;;;;;;23.60;19.38;;;;;;;;;;10423035;27;20089;-63
2024/02/23 16:50:00;;;;;;;17.13;14.15;;;;;;;;;;10422454;27;20097;-63
2024/02/23 16:54:59;;;;;;;21.65;16.60;;;;;;;;;;10424567;27;20074;-63
2024/02/23 16:59:58;;;;;;;15.68;11.68;;;;;;;;;;10420652;27;20497;-63
2024/02/23 17:05:00;;;;;;;13.45;11.52;;;;;;;;;;10421911;27;20079;-63
2024/02/23 17:10:00;;;;;;;12.50;10.40;;;;;;;;;;10419771;27;20412;-63
2024/02/23 17:14:58;;;;;;;15.95;10.45;;;;;;;;;;10420964;27;20061;-64
2024/02/23 17:19:56;;;;;;;10.80;8.90;;;;;;;;;;10419063;27;20081;-63
2024/02/23 17:24:55;;;;;;;10.45;8.65;;;;;;;;;;10421719;27;20092;-63
2024/02/23 17:29:54;;;;;;;17.00;7.93;;;;;;;;;;10415344;27;20070;-64
2024/02/23 17:34:52;;;;;;;12.77;7.38;;;;;;;;;;10423284;27;20070;-63
2024/02/23 17:39:51;;;;;;;12.65;8.88;;;;;;;;;;10426895;27;20059;-64
2024/02/23 17:44:49;;;;;;;9.88;8.60;;;;;;;;;;10425837;27;20070;-64
2024/02/23 17:49:49;;;;;;;11.35;8.63;;;;;;;;;;10420922;27;20071;-62
2024/02/23 17:54:48;;;;;;;8.23;6.72;;;;;;;;;;10412510;27;20527;-62
2024/02/23 17:59:47;;;;;;;9.88;7.97;;;;;;;;;;10409884;27;20071;-61
2024/02/23 18:04:46;;;;;;;8.98;6.88;;;;;;;;;;10412855;27;20071;-62
2024/02/23 18:09:46;;;;;;;9.38;6.22;;;;;;;;;;10413911;27;20059;-63
2024/02/23 18:14:45;;;;;;;9.18;6.85;;;;;;;;;;10406888;27;20499;-62
2024/02/23 18:19:46;;;;;;;12.00;7.60;;;;;;;;;;10415633;27;20101;-63
2024/02/23 18:24:45;;;;;;;14.38;7.18;;;;;;;;;;10417813;27;20086;-64
2024/02/23 18:29:44;;;;;;;11.75;7.32;;;;;;;;;;10416770;27;20059;-64
2024/02/23 18:34:43;;;;;;;8.30;6.10;;;;;;;;;;10417783;27;20191;-64
2024/02/23 18:39:42;;;;;;;10.90;7.18;;;;;;;;;;10418105;27;20067;-63
2024/02/23 18:44:41;;;;;;;9.23;6.82;;;;;;;;;;10402349;27;20082;-64
2024/02/23 18:49:40;;;;;;;8.00;6.45;;;;;;;;;;10421786;27;20075;-64
2024/02/23 18:54:38;;;;;;;13.32;7.13;;;;;;;;;;10415799;27;20078;-64
2024/02/23 18:59:37;;;;;;;7.78;6.45;;;;;;;;;;10418976;27;20062;-63
2024/02/23 19:04:36;;;;;;;7.05;6.35;;;;;;;;;;10414755;27;20079;-63
2024/02/23 19:09:36;;;;;;;7.47;6.78;;;;;;;;;;10420103;27;20051;-63
2024/02/23 19:14:35;;;;;;;6.95;5.88;;;;;;;;;;10416972;28;20105;-63
2024/02/23 19:19:33;;;;;;;8.77;6.15;;;;;;;;;;10414997;28;20086;-64
2024/02/23 19:24:33;;;;;;;7.30;5.93;;;;;;;;;;10415769;28;20083;-63
2024/02/23 19:29:31;;;;;;;7.50;6.80;;;;;;;;;;10397258;28;20063;-63
2024/02/23 19:34:30;;;;;;;8.25;6.10;;;;;;;;;;10418107;28;20097;-64
2024/02/23 19:39:29;;;;;;;6.47;5.80;;;;;;;;;;10418937;28;20059;-62
2024/02/23 19:44:29;;;;;;;9.95;7.55;;;;;;;;;;10415655;28;20090;-63
2024/02/23 19:49:30;;;;;;;7.72;6.93;;;;;;;;;;10419781;28;20086;-64
2024/02/23 19:54:29;;;;;;;6.57;5.80;;;;;;;;;;10413902;28;20071;-63
2024/02/23 19:59:32;;;;;;;9.73;6.28;;;;;;;;;;10398018;28;20081;-63
2024/02/23 20:04:30;;;;;;;7.30;5.65;;;;;;;;;;10422684;27;20113;-64
2024/02/23 20:09:29;;;;;;;7.75;6.43;;;;;;;;;;10425723;27;20075;-64
2024/02/23 20:14:29;;;;;;;9.02;6.00;;;;;;;;;;10420869;27;20063;-63
2024/02/23 20:19:27;;;;;;;8.52;6.32;;;;;;;;;;10420427;27;20102;-64
2024/02/23 20:24:27;;;;;;;5.80;5.07;;;;;;;;;;10417604;27;20129;-63
2024/02/23 20:29:25;;;;;;;8.73;6.50;;;;;;;;;;10422856;27;20531;-62
2024/02/23 20:34:25;;;;;;;6.53;5.78;;;;;;;;;;10420014;27;20079;-63
2024/02/23 20:39:24;;;;;;;10.43;5.88;;;;;;;;;;10414312;27;20403;-62
2024/02/23 20:44:23;;;;;;;8.27;5.70;;;;;;;;;;10415609;27;20071;-61
2024/02/23 20:49:26;;;;;;;5.65;5.15;;;;;;;;;;10404009;27;20082;-62
2024/02/23 20:54:25;;;;;;;6.32;5.72;;;;;;;;;;10408469;27;20551;-61
2024/02/23 20:59:24;;;;;;;6.88;5.75;;;;;;;;;;10416114;27;20070;-61
2024/02/23 21:04:22;;;;;;;6.10;5.30;;;;;;;;;;10418754;27;20069;-62
2024/02/23 21:09:22;;;;;;;5.32;4.82;;;;;;;;;;10415456;27;20074;-62
2024/02/23 21:14:20;;;;;;;5.82;4.85;;;;;;;;;;10416740;27;20275;-63
2024/02/23 21:19:18;;;;;;;5.97;5.15;;;;;;;;;;10416427;27;20079;-62
2024/02/23 21:24:17;;;;;;;6.32;5.07;;;;;;;;;;10418860;27;20098;-62
2024/02/23 21:29:16;;;;;;;5.47;4.93;;;;;;;;;;10417051;27;20706;-63
2024/02/23 21:34:15;;;;;;;9.50;6.55;;;;;;;;;;10414745;27;20078;-62
2024/02/23 21:39:17;;;;;;;5.47;4.97;;;;;;;;;;10399845;27;20082;-62
2024/02/23 21:44:17;;;;;;;4.85;4.03;;;;;;;;;;10418045;27;20079;-63
2024/02/23 21:49:15;;;;;;;4.80;4.40;;;;;;;;;;10416899;27;20070;-62
2024/02/23 21:54:13;;;;;;;5.05;4.57;;;;;;;;;;10415033;27;20086;-63
2024/02/23 21:59:11;;;;;;;4.75;4.35;;;;;;;;;;10416423;27;20086;-62
2024/02/23 22:04:11;;;;;;;5.03;4.38;;;;;;;;;;10411747;27;20063;-61
2024/02/23 22:09:10;;;;;;;6.28;4.03;;;;;;;;;;10410665;27;20075;-63
2024/02/23 22:14:08;;;;;;;7.18;4.00;;;;;;;;;;10410351;27;20078;-62
2024/02/23 22:19:06;;;;;;;4.80;4.40;;;;;;;;;;10404714;27;20460;-64
2024/02/23 22:24:06;;;;;;;4.93;4.05;;;;;;;;;;10409286;27;20055;-63
2024/02/23 22:29:05;;;;;;;5.15;4.68;;;;;;;;;;10411109;27;20082;-63
2024/02/23 22:34:03;;;;;;;4.70;4.20;;;;;;;;;;10410383;27;20105;-63
2024/02/23 22:39:01;;;;;;;5.32;4.65;;;;;;;;;;10408537;27;20070;-63
2024/02/23 22:44:01;;;;;;;5.05;4.32;;;;;;;;;;10414706;27;20532;-63
2024/02/23 22:49:00;;;;;;;6.70;4.65;;;;;;;;;;10414212;27;20381;-63
2024/02/23 22:53:58;;;;;;;5.28;4.13;;;;;;;;;;10419594;27;20662;-63
2024/02/23 22:58:56;;;;;;;4.82;4.43;;;;;;;;;;10413853;27;20063;-63
2024/02/23 23:03:56;;;;;;;4.30;3.90;;;;;;;;;;10395273;27;20079;-64
2024/02/23 23:08:54;;;;;;;6.45;4.00;;;;;;;;;;10414134;27;20074;-63
2024/02/23 23:13:52;;;;;;;5.47;4.30;;;;;;;;;;10413509;27;20074;-62
2024/02/23 23:18:51;;;;;;;5.88;4.75;;;;;;;;;;10413074;28;20063;-63
2024/02/23 23:23:51;;;;;;;4.93;4.40;;;;;;;;;;10409481;28;20078;-63
2024/02/23 23:28:49;;;;;;;8.05;4.43;;;;;;;;;;10410392;28;20074;-63
2024/02/23 23:33:50;;;;;;;5.68;4.07;;;;;;;;;;10410420;28;20071;-64
2024/02/23 23:38:49;;;;;;;4.78;4.28;;;;;;;;;;10420600;27;20075;-64
2024/02/23 23:43:48;;;;;;;5.90;4.78;;;;;;;;;;10418973;27;20070;-64
2024/02/23 23:48:47;;;;;;;7.40;4.75;;;;;;;;;;10423456;27;20063;-63
2024/02/23 23:53:45;;;;;;;5.28;4.78;;;;;;;;;;10421121;27;20071;-65
2024/02/23 23:58:43;;;;;;;5.97;5.32;;;;;;;;;;10421586;27;20079;-63
